sensor_id;sensor_type;location;lat;lon;timestamp;P1;durP1;ratioP1;P2;durP2;ratioP2
50519;SDS011;36468;44.098;3.078;2022-07-06T00:02:14;4.22;;;0.93;;
50519;SDS011;36468;44.098;3.078;2022-07-06T00:04:41;2.97;;;0.70;;
50519;SDS011;36468;44.098;3.078;2022-07-06T00:07:07;3.65;;;0.70;;
50519;SDS011;36468;44.098;3.078;2022-07-06T00:09:33;1.40;;;0.90;;
50519;SDS011;36468;44.098;3.078;2022-07-06T00:12:00;3.75;;;0.70;;
50519;SDS011;36468;44.098;3.078;2022-07-06T00:14:26;1.30;;;0.60;;
50519;SDS011;36468;44.098;3.078;2022-07-06T00:16:52;2.42;;;0.60;;
50519;SDS011;36468;44.098;3.078;2022-07-06T00:19:18;4.15;;;0.90;;
50519;SDS011;36468;44.098;3.078;2022-07-06T00:21:44;4.50;;;0.70;;
50519;SDS011;36468;44.098;3.078;2022-07-06T00:24:10;4.28;;;1.08;;
50519;SDS011;36468;44.098;3.078;2022-07-06T00:26:36;1.33;;;0.65;;
50519;SDS011;36468;44.098;3.078;2022-07-06T00:29:02;1.98;;;0.60;;
50519;SDS011;36468;44.098;3.078;2022-07-06T00:31:28;2.00;;;0.70;;
50519;SDS011;36468;44.098;3.078;2022-07-06T00:33:54;2.83;;;0.95;;
50519;SDS011;36468;44.098;3.078;2022-07-06T00:36:20;1.73;;;0.82;;
50519;SDS011;36468;44.098;3.078;2022-07-06T00:38:46;2.42;;;0.70;;
50519;SDS011;36468;44.098;3.078;2022-07-06T00:41:13;4.63;;;0.70;;
50519;SDS011;36468;44.098;3.078;2022-07-06T00:43:46;1.33;;;0.50;;
50519;SDS011;36468;44.098;3.078;2022-07-06T00:46:12;6.65;;;0.80;;
50519;SDS011;36468;44.098;3.078;2022-07-06T00:48:38;2.20;;;0.50;;
50519;SDS011;36468;44.098;3.078;2022-07-06T00:51:04;2.88;;;0.50;;
50519;SDS011;36468;44.098;3.078;2022-07-06T00:53:30;2.50;;;0.60;;
50519;SDS011;36468;44.098;3.078;2022-07-06T00:55:56;5.25;;;0.80;;
50519;SDS011;36468;44.098;3.078;2022-07-06T00:58:22;4.28;;;0.57;;
50519;SDS011;36468;44.098;3.078;2022-07-06T01:00:48;4.20;;;0.70;;
50519;SDS011;36468;44.098;3.078;2022-07-06T01:03:14;2.50;;;0.68;;
50519;SDS011;36468;44.098;3.078;2022-07-06T01:05:41;2.25;;;0.60;;
50519;SDS011;36468;44.098;3.078;2022-07-06T01:08:07;1.83;;;0.50;;
50519;SDS011;36468;44.098;3.078;2022-07-06T01:10:33;2.53;;;0.80;;
50519;SDS011;36468;44.098;3.078;2022-07-06T01:12:59;2.28;;;0.80;;
50519;SDS011;36468;44.098;3.078;2022-07-06T01:15:25;7.45;;;0.70;;
50519;SDS011;36468;44.098;3.078;2022-07-06T01:17:51;2.15;;;0.70;;
50519;SDS011;36468;44.098;3.078;2022-07-06T01:22:44;6.40;;;1.08;;
50519;SDS011;36468;44.098;3.078;2022-07-06T01:25:11;6.55;;;0.80;;
50519;SDS011;36468;44.098;3.078;2022-07-06T01:27:37;2.30;;;0.70;;
50519;SDS011;36468;44.098;3.078;2022-07-06T01:30:13;1.02;;;0.75;;
50519;SDS011;36468;44.098;3.078;2022-07-06T01:32:40;2.28;;;0.90;;
50519;SDS011;36468;44.098;3.078;2022-07-06T01:35:06;3.63;;;0.75;;
50519;SDS011;36468;44.098;3.078;2022-07-06T01:37:33;3.80;;;0.70;;
50519;SDS011;36468;44.098;3.078;2022-07-06T01:40:00;2.75;;;0.77;;
50519;SDS011;36468;44.098;3.078;2022-07-06T01:42:26;2.97;;;0.50;;
50519;SDS011;36468;44.098;3.078;2022-07-06T01:44:52;1.35;;;0.60;;
50519;SDS011;36468;44.098;3.078;2022-07-06T01:47:19;3.25;;;0.80;;
50519;SDS011;36468;44.098;3.078;2022-07-06T01:49:44;2.97;;;0.82;;
50519;SDS011;36468;44.098;3.078;2022-07-06T01:52:11;1.13;;;0.60;;
50519;SDS011;36468;44.098;3.078;2022-07-06T01:54:37;3.67;;;0.60;;
50519;SDS011;36468;44.098;3.078;2022-07-06T01:57:03;2.17;;;0.60;;
50519;SDS011;36468;44.098;3.078;2022-07-06T01:59:29;2.08;;;0.70;;
50519;SDS011;36468;44.098;3.078;2022-07-06T02:01:55;1.27;;;0.50;;
50519;SDS011;36468;44.098;3.078;2022-07-06T02:04:21;2.83;;;0.80;;
50519;SDS011;36468;44.098;3.078;2022-07-06T02:06:48;3.35;;;0.75;;
50519;SDS011;36468;44.098;3.078;2022-07-06T02:09:14;4.05;;;0.73;;
50519;SDS011;36468;44.098;3.078;2022-07-06T02:11:41;6.10;;;0.68;;
50519;SDS011;36468;44.098;3.078;2022-07-06T02:14:07;3.05;;;0.68;;
50519;SDS011;36468;44.098;3.078;2022-07-06T02:16:33;3.50;;;0.90;;
50519;SDS011;36468;44.098;3.078;2022-07-06T02:18:59;1.67;;;0.70;;
50519;SDS011;36468;44.098;3.078;2022-07-06T02:21:25;4.50;;;0.63;;
50519;SDS011;36468;44.098;3.078;2022-07-06T02:23:52;1.60;;;0.70;;
50519;SDS011;36468;44.098;3.078;2022-07-06T02:26:18;2.13;;;0.80;;
50519;SDS011;36468;44.098;3.078;2022-07-06T02:28:44;4.05;;;0.55;;
50519;SDS011;36468;44.098;3.078;2022-07-06T02:31:12;4.63;;;0.60;;
50519;SDS011;36468;44.098;3.078;2022-07-06T02:33:38;2.72;;;0.63;;
50519;SDS011;36468;44.098;3.078;2022-07-06T02:36:04;2.08;;;0.70;;
50519;SDS011;36468;44.098;3.078;2022-07-06T02:38:31;1.50;;;0.70;;
50519;SDS011;36468;44.098;3.078;2022-07-06T02:40:57;1.83;;;0.70;;
50519;SDS011;36468;44.098;3.078;2022-07-06T02:43:23;2.78;;;0.80;;
50519;SDS011;36468;44.098;3.078;2022-07-06T02:45:49;2.30;;;0.63;;
50519;SDS011;36468;44.098;3.078;2022-07-06T02:48:15;4.05;;;0.95;;
50519;SDS011;36468;44.098;3.078;2022-07-06T02:50:41;1.90;;;0.73;;
50519;SDS011;36468;44.098;3.078;2022-07-06T02:53:07;5.20;;;0.70;;
50519;SDS011;36468;44.098;3.078;2022-07-06T02:55:33;2.45;;;0.77;;
50519;SDS011;36468;44.098;3.078;2022-07-06T02:57:59;4.85;;;1.15;;
50519;SDS011;36468;44.098;3.078;2022-07-06T03:00:25;3.00;;;0.68;;
50519;SDS011;36468;44.098;3.078;2022-07-06T03:02:51;6.38;;;0.93;;
50519;SDS011;36468;44.098;3.078;2022-07-06T03:05:17;5.43;;;0.77;;
50519;SDS011;36468;44.098;3.078;2022-07-06T03:07:43;5.68;;;0.70;;
50519;SDS011;36468;44.098;3.078;2022-07-06T03:10:09;1.30;;;0.60;;
50519;SDS011;36468;44.098;3.078;2022-07-06T03:12:35;2.90;;;0.70;;
50519;SDS011;36468;44.098;3.078;2022-07-06T03:15:01;4.65;;;1.20;;
50519;SDS011;36468;44.098;3.078;2022-07-06T03:17:27;3.60;;;0.70;;
50519;SDS011;36468;44.098;3.078;2022-07-06T03:19:54;3.88;;;0.88;;
50519;SDS011;36468;44.098;3.078;2022-07-06T03:22:20;1.83;;;0.50;;
50519;SDS011;36468;44.098;3.078;2022-07-06T03:24:46;5.20;;;0.75;;
50519;SDS011;36468;44.098;3.078;2022-07-06T03:27:12;6.53;;;0.70;;
50519;SDS011;36468;44.098;3.078;2022-07-06T03:29:38;3.45;;;0.80;;
50519;SDS011;36468;44.098;3.078;2022-07-06T03:32:04;2.53;;;0.70;;
50519;SDS011;36468;44.098;3.078;2022-07-06T03:34:30;1.77;;;0.65;;
50519;SDS011;36468;44.098;3.078;2022-07-06T03:36:56;1.65;;;0.70;;
50519;SDS011;36468;44.098;3.078;2022-07-06T03:39:22;2.35;;;0.70;;
50519;SDS011;36468;44.098;3.078;2022-07-06T03:41:48;2.15;;;0.70;;
50519;SDS011;36468;44.098;3.078;2022-07-06T03:44:14;4.25;;;0.93;;
50519;SDS011;36468;44.098;3.078;2022-07-06T03:46:40;4.20;;;0.80;;
50519;SDS011;36468;44.098;3.078;2022-07-06T03:49:06;4.07;;;0.85;;
50519;SDS011;36468;44.098;3.078;2022-07-06T03:51:32;5.05;;;0.85;;
50519;SDS011;36468;44.098;3.078;2022-07-06T03:53:58;2.10;;;0.70;;
50519;SDS011;36468;44.098;3.078;2022-07-06T03:56:24;7.13;;;0.70;;
50519;SDS011;36468;44.098;3.078;2022-07-06T03:58:56;2.75;;;0.80;;
50519;SDS011;36468;44.098;3.078;2022-07-06T04:01:23;2.65;;;0.95;;
50519;SDS011;36468;44.098;3.078;2022-07-06T04:03:49;2.00;;;0.93;;
50519;SDS011;36468;44.098;3.078;2022-07-06T04:06:15;3.60;;;1.00;;
50519;SDS011;36468;44.098;3.078;2022-07-06T04:08:41;1.88;;;0.90;;
50519;SDS011;36468;44.098;3.078;2022-07-06T04:11:07;2.85;;;1.10;;
50519;SDS011;36468;44.098;3.078;2022-07-06T04:13:33;5.97;;;1.20;;
50519;SDS011;36468;44.098;3.078;2022-07-06T04:15:59;4.25;;;1.10;;
50519;SDS011;36468;44.098;3.078;2022-07-06T04:18:25;4.15;;;1.20;;
50519;SDS011;36468;44.098;3.078;2022-07-06T04:20:52;3.63;;;1.30;;
50519;SDS011;36468;44.098;3.078;2022-07-06T04:23:18;4.93;;;1.10;;
50519;SDS011;36468;44.098;3.078;2022-07-06T04:25:44;6.00;;;1.00;;
50519;SDS011;36468;44.098;3.078;2022-07-06T04:28:10;4.18;;;1.00;;
50519;SDS011;36468;44.098;3.078;2022-07-06T04:30:36;5.78;;;0.93;;
50519;SDS011;36468;44.098;3.078;2022-07-06T04:33:02;5.13;;;1.33;;
50519;SDS011;36468;44.098;3.078;2022-07-06T04:35:28;4.53;;;0.90;;
50519;SDS011;36468;44.098;3.078;2022-07-06T04:37:54;6.43;;;1.05;;
50519;SDS011;36468;44.098;3.078;2022-07-06T04:40:20;2.65;;;0.80;;
50519;SDS011;36468;44.098;3.078;2022-07-06T04:42:46;3.72;;;1.00;;
50519;SDS011;36468;44.098;3.078;2022-07-06T04:45:12;5.78;;;1.23;;
50519;SDS011;36468;44.098;3.078;2022-07-06T04:47:38;2.33;;;1.00;;
50519;SDS011;36468;44.098;3.078;2022-07-06T04:50:05;4.35;;;1.00;;
50519;SDS011;36468;44.098;3.078;2022-07-06T04:52:31;2.85;;;0.85;;
50519;SDS011;36468;44.098;3.078;2022-07-06T04:54:57;5.65;;;0.88;;
50519;SDS011;36468;44.098;3.078;2022-07-06T04:57:23;2.22;;;0.85;;
50519;SDS011;36468;44.098;3.078;2022-07-06T04:59:54;3.03;;;1.08;;
50519;SDS011;36468;44.098;3.078;2022-07-06T05:02:21;3.47;;;0.80;;
50519;SDS011;36468;44.098;3.078;2022-07-06T05:04:47;7.78;;;0.90;;
50519;SDS011;36468;44.098;3.078;2022-07-06T05:07:13;17.95;;;1.67;;
50519;SDS011;36468;44.098;3.078;2022-07-06T05:09:39;27.95;;;2.05;;
50519;SDS011;36468;44.098;3.078;2022-07-06T05:12:06;52.45;;;3.92;;
50519;SDS011;36468;44.098;3.078;2022-07-06T05:14:32;82.55;;;5.30;;
50519;SDS011;36468;44.098;3.078;2022-07-06T05:16:59;67.22;;;4.65;;
50519;SDS011;36468;44.098;3.078;2022-07-06T05:19:25;60.42;;;4.40;;
50519;SDS011;36468;44.098;3.078;2022-07-06T05:21:51;48.35;;;4.35;;
50519;SDS011;36468;44.098;3.078;2022-07-06T05:24:17;46.88;;;3.65;;
50519;SDS011;36468;44.098;3.078;2022-07-06T05:26:44;55.35;;;4.05;;
50519;SDS011;36468;44.098;3.078;2022-07-06T05:29:10;20.60;;;2.33;;
50519;SDS011;36468;44.098;3.078;2022-07-06T05:31:36;40.15;;;3.70;;
50519;SDS011;36468;44.098;3.078;2022-07-06T05:34:02;23.10;;;2.60;;
50519;SDS011;36468;44.098;3.078;2022-07-06T05:36:28;39.88;;;3.05;;
50519;SDS011;36468;44.098;3.078;2022-07-06T05:38:54;30.60;;;2.50;;
50519;SDS011;36468;44.098;3.078;2022-07-06T05:41:20;13.40;;;1.40;;
50519;SDS011;36468;44.098;3.078;2022-07-06T05:43:46;12.18;;;1.60;;
50519;SDS011;36468;44.098;3.078;2022-07-06T05:46:13;6.15;;;1.20;;
50519;SDS011;36468;44.098;3.078;2022-07-06T05:48:39;2.53;;;0.73;;
50519;SDS011;36468;44.098;3.078;2022-07-06T05:51:24;4.78;;;1.20;;
50519;SDS011;36468;44.098;3.078;2022-07-06T05:53:50;5.30;;;1.05;;
50519;SDS011;36468;44.098;3.078;2022-07-06T05:56:16;4.45;;;1.10;;
50519;SDS011;36468;44.098;3.078;2022-07-06T05:58:42;7.28;;;1.48;;
50519;SDS011;36468;44.098;3.078;2022-07-06T06:01:10;9.70;;;1.55;;
50519;SDS011;36468;44.098;3.078;2022-07-06T06:03:36;6.20;;;1.40;;
50519;SDS011;36468;44.098;3.078;2022-07-06T06:06:02;6.28;;;1.30;;
50519;SDS011;36468;44.098;3.078;2022-07-06T06:08:28;11.30;;;1.23;;
50519;SDS011;36468;44.098;3.078;2022-07-06T06:10:54;4.22;;;1.10;;
50519;SDS011;36468;44.098;3.078;2022-07-06T06:13:20;5.35;;;1.40;;
50519;SDS011;36468;44.098;3.078;2022-07-06T06:15:46;6.00;;;1.20;;
50519;SDS011;36468;44.098;3.078;2022-07-06T06:18:12;3.90;;;1.00;;
50519;SDS011;36468;44.098;3.078;2022-07-06T06:20:41;2.72;;;0.68;;
50519;SDS011;36468;44.098;3.078;2022-07-06T06:23:07;7.38;;;1.00;;
50519;SDS011;36468;44.098;3.078;2022-07-06T06:25:34;5.32;;;0.90;;
50519;SDS011;36468;44.098;3.078;2022-07-06T06:28:04;6.00;;;0.93;;
50519;SDS011;36468;44.098;3.078;2022-07-06T06:30:31;5.45;;;1.40;;
50519;SDS011;36468;44.098;3.078;2022-07-06T06:35:32;7.32;;;1.00;;
50519;SDS011;36468;44.098;3.078;2022-07-06T06:37:58;9.63;;;0.90;;
50519;SDS011;36468;44.098;3.078;2022-07-06T06:40:24;6.75;;;1.23;;
50519;SDS011;36468;44.098;3.078;2022-07-06T06:42:50;3.75;;;1.00;;
50519;SDS011;36468;44.098;3.078;2022-07-06T06:45:16;6.47;;;1.00;;
50519;SDS011;36468;44.098;3.078;2022-07-06T06:47:42;3.72;;;0.80;;
50519;SDS011;36468;44.098;3.078;2022-07-06T06:50:09;4.22;;;0.90;;
50519;SDS011;36468;44.098;3.078;2022-07-06T06:52:35;3.92;;;0.70;;
50519;SDS011;36468;44.098;3.078;2022-07-06T06:55:01;6.28;;;1.00;;
50519;SDS011;36468;44.098;3.078;2022-07-06T06:57:27;4.13;;;0.80;;
50519;SDS011;36468;44.098;3.078;2022-07-06T06:59:54;3.53;;;1.05;;
50519;SDS011;36468;44.098;3.078;2022-07-06T07:02:20;1.95;;;0.70;;
50519;SDS011;36468;44.098;3.078;2022-07-06T07:04:46;3.08;;;0.63;;
50519;SDS011;36468;44.098;3.078;2022-07-06T07:07:12;2.08;;;0.70;;
50519;SDS011;36468;44.098;3.078;2022-07-06T07:09:38;1.88;;;0.63;;
50519;SDS011;36468;44.098;3.078;2022-07-06T07:12:04;4.10;;;0.90;;
50519;SDS011;36468;44.098;3.078;2022-07-06T07:14:31;1.63;;;0.55;;
50519;SDS011;36468;44.098;3.078;2022-07-06T07:16:57;4.32;;;0.55;;
50519;SDS011;36468;44.098;3.078;2022-07-06T07:19:23;3.90;;;0.82;;
50519;SDS011;36468;44.098;3.078;2022-07-06T07:21:49;2.25;;;0.73;;
50519;SDS011;36468;44.098;3.078;2022-07-06T07:24:15;2.42;;;0.60;;
50519;SDS011;36468;44.098;3.078;2022-07-06T07:26:41;5.50;;;0.60;;
50519;SDS011;36468;44.098;3.078;2022-07-06T07:29:07;4.93;;;0.68;;
50519;SDS011;36468;44.098;3.078;2022-07-06T07:31:33;5.35;;;0.50;;
50519;SDS011;36468;44.098;3.078;2022-07-06T07:33:59;4.70;;;0.63;;
50519;SDS011;36468;44.098;3.078;2022-07-06T07:36:25;7.63;;;0.73;;
50519;SDS011;36468;44.098;3.078;2022-07-06T07:38:52;2.42;;;0.60;;
50519;SDS011;36468;44.098;3.078;2022-07-06T07:41:18;3.30;;;0.55;;
50519;SDS011;36468;44.098;3.078;2022-07-06T07:43:44;3.75;;;0.60;;
50519;SDS011;36468;44.098;3.078;2022-07-06T07:46:10;4.03;;;0.70;;
50519;SDS011;36468;44.098;3.078;2022-07-06T07:48:36;4.38;;;0.50;;
50519;SDS011;36468;44.098;3.078;2022-07-06T07:51:02;7.72;;;0.80;;
50519;SDS011;36468;44.098;3.078;2022-07-06T07:53:28;5.70;;;0.45;;
50519;SDS011;36468;44.098;3.078;2022-07-06T07:55:54;3.05;;;0.55;;
50519;SDS011;36468;44.098;3.078;2022-07-06T07:58:20;3.10;;;0.60;;
50519;SDS011;36468;44.098;3.078;2022-07-06T08:00:46;3.00;;;0.43;;
50519;SDS011;36468;44.098;3.078;2022-07-06T08:03:12;1.98;;;0.40;;
50519;SDS011;36468;44.098;3.078;2022-07-06T08:05:38;3.00;;;0.50;;
50519;SDS011;36468;44.098;3.078;2022-07-06T08:08:04;3.03;;;0.55;;
50519;SDS011;36468;44.098;3.078;2022-07-06T08:10:31;5.18;;;0.60;;
50519;SDS011;36468;44.098;3.078;2022-07-06T08:12:57;3.05;;;0.57;;
50519;SDS011;36468;44.098;3.078;2022-07-06T08:15:23;3.80;;;0.43;;
50519;SDS011;36468;44.098;3.078;2022-07-06T08:17:49;2.65;;;0.40;;
50519;SDS011;36468;44.098;3.078;2022-07-06T08:20:15;2.80;;;0.55;;
50519;SDS011;36468;44.098;3.078;2022-07-06T08:22:41;2.20;;;0.63;;
50519;SDS011;36468;44.098;3.078;2022-07-06T08:25:07;7.97;;;0.50;;
50519;SDS011;36468;44.098;3.078;2022-07-06T08:27:33;3.95;;;0.77;;
50519;SDS011;36468;44.098;3.078;2022-07-06T08:30:00;2.55;;;0.43;;
50519;SDS011;36468;44.098;3.078;2022-07-06T08:32:26;2.63;;;0.60;;
50519;SDS011;36468;44.098;3.078;2022-07-06T08:34:52;3.80;;;0.32;;
50519;SDS011;36468;44.098;3.078;2022-07-06T08:37:18;1.75;;;0.40;;
50519;SDS011;36468;44.098;3.078;2022-07-06T08:39:45;2.78;;;0.50;;
50519;SDS011;36468;44.098;3.078;2022-07-06T08:42:11;1.33;;;0.38;;
50519;SDS011;36468;44.098;3.078;2022-07-06T08:44:38;1.70;;;0.38;;
50519;SDS011;36468;44.098;3.078;2022-07-06T08:47:05;3.85;;;0.40;;
50519;SDS011;36468;44.098;3.078;2022-07-06T08:49:32;1.67;;;0.55;;
50519;SDS011;36468;44.098;3.078;2022-07-06T08:51:59;4.50;;;0.38;;
50519;SDS011;36468;44.098;3.078;2022-07-06T08:54:25;2.47;;;0.50;;
50519;SDS011;36468;44.098;3.078;2022-07-06T08:56:52;3.38;;;0.55;;
50519;SDS011;36468;44.098;3.078;2022-07-06T08:59:18;2.53;;;0.75;;
50519;SDS011;36468;44.098;3.078;2022-07-06T09:01:45;1.38;;;0.52;;
50519;SDS011;36468;44.098;3.078;2022-07-06T09:04:12;2.83;;;0.68;;
50519;SDS011;36468;44.098;3.078;2022-07-06T09:06:38;1.52;;;0.30;;
50519;SDS011;36468;44.098;3.078;2022-07-06T09:09:06;2.05;;;0.30;;
50519;SDS011;36468;44.098;3.078;2022-07-06T09:11:33;1.63;;;0.60;;
50519;SDS011;36468;44.098;3.078;2022-07-06T09:14:00;6.72;;;0.55;;
50519;SDS011;36468;44.098;3.078;2022-07-06T09:16:27;4.53;;;0.40;;
50519;SDS011;36468;44.098;3.078;2022-07-06T09:18:57;3.17;;;0.50;;
50519;SDS011;36468;44.098;3.078;2022-07-06T09:21:30;1.67;;;0.50;;
50519;SDS011;36468;44.098;3.078;2022-07-06T09:23:57;5.78;;;0.50;;
50519;SDS011;36468;44.098;3.078;2022-07-06T09:26:24;1.98;;;0.35;;
50519;SDS011;36468;44.098;3.078;2022-07-06T09:28:50;1.92;;;0.40;;
50519;SDS011;36468;44.098;3.078;2022-07-06T09:31:17;2.67;;;0.30;;
50519;SDS011;36468;44.098;3.078;2022-07-06T09:33:55;1.52;;;0.38;;
50519;SDS011;36468;44.098;3.078;2022-07-06T09:39:20;3.30;;;0.40;;
50519;SDS011;36468;44.098;3.078;2022-07-06T09:41:47;1.73;;;0.50;;
50519;SDS011;36468;44.098;3.078;2022-07-06T09:44:18;2.97;;;0.40;;
50519;SDS011;36468;44.098;3.078;2022-07-06T09:49:10;3.85;;;0.50;;
50519;SDS011;36468;44.098;3.078;2022-07-06T09:51:36;4.70;;;0.50;;
50519;SDS011;36468;44.098;3.078;2022-07-06T09:54:06;3.45;;;0.40;;
50519;SDS011;36468;44.098;3.078;2022-07-06T09:56:40;3.47;;;0.50;;
50519;SDS011;36468;44.098;3.078;2022-07-06T09:59:13;4.00;;;0.40;;
50519;SDS011;36468;44.098;3.078;2022-07-06T10:01:39;1.50;;;0.22;;
50519;SDS011;36468;44.098;3.078;2022-07-06T10:04:06;7.07;;;0.40;;
50519;SDS011;36468;44.098;3.078;2022-07-06T10:06:32;3.65;;;0.43;;
50519;SDS011;36468;44.098;3.078;2022-07-06T10:08:58;1.33;;;0.40;;
50519;SDS011;36468;44.098;3.078;2022-07-06T10:11:25;3.70;;;0.30;;
50519;SDS011;36468;44.098;3.078;2022-07-06T10:13:55;2.42;;;0.30;;
50519;SDS011;36468;44.098;3.078;2022-07-06T10:18:47;3.38;;;0.60;;
50519;SDS011;36468;44.098;3.078;2022-07-06T10:21:15;4.07;;;0.57;;
50519;SDS011;36468;44.098;3.078;2022-07-06T10:23:41;3.20;;;0.50;;
50519;SDS011;36468;44.098;3.078;2022-07-06T10:26:08;3.33;;;0.40;;
50519;SDS011;36468;44.098;3.078;2022-07-06T10:28:34;5.03;;;0.70;;
50519;SDS011;36468;44.098;3.078;2022-07-06T10:31:00;1.60;;;0.28;;
50519;SDS011;36468;44.098;3.078;2022-07-06T10:33:26;1.35;;;0.40;;
50519;SDS011;36468;44.098;3.078;2022-07-06T10:35:52;4.20;;;0.30;;
50519;SDS011;36468;44.098;3.078;2022-07-06T10:38:20;2.88;;;0.30;;
50519;SDS011;36468;44.098;3.078;2022-07-06T10:41:01;0.55;;;0.25;;
50519;SDS011;36468;44.098;3.078;2022-07-06T10:43:31;2.45;;;0.45;;
50519;SDS011;36468;44.098;3.078;2022-07-06T10:45:57;2.30;;;0.63;;
50519;SDS011;36468;44.098;3.078;2022-07-06T10:48:23;2.67;;;0.90;;
50519;SDS011;36468;44.098;3.078;2022-07-06T10:50:51;1.23;;;0.50;;
50519;SDS011;36468;44.098;3.078;2022-07-06T10:53:24;2.67;;;0.55;;
50519;SDS011;36468;44.098;3.078;2022-07-06T10:55:51;4.72;;;0.47;;
50519;SDS011;36468;44.098;3.078;2022-07-06T11:01:17;1.55;;;0.30;;
50519;SDS011;36468;44.098;3.078;2022-07-06T11:03:46;2.85;;;0.38;;
50519;SDS011;36468;44.098;3.078;2022-07-06T11:06:14;3.05;;;0.70;;
50519;SDS011;36468;44.098;3.078;2022-07-06T11:11:25;2.28;;;0.70;;
50519;SDS011;36468;44.098;3.078;2022-07-06T11:16:18;1.35;;;0.30;;
50519;SDS011;36468;44.098;3.078;2022-07-06T11:18:48;3.03;;;0.32;;
50519;SDS011;36468;44.098;3.078;2022-07-06T11:21:18;1.95;;;0.45;;
50519;SDS011;36468;44.098;3.078;2022-07-06T11:23:45;0.73;;;0.30;;
50519;SDS011;36468;44.098;3.078;2022-07-06T11:26:12;1.23;;;0.65;;
50519;SDS011;36468;44.098;3.078;2022-07-06T11:28:38;1.10;;;0.30;;
50519;SDS011;36468;44.098;3.078;2022-07-06T11:31:04;4.82;;;0.50;;
50519;SDS011;36468;44.098;3.078;2022-07-06T11:33:31;1.13;;;0.25;;
50519;SDS011;36468;44.098;3.078;2022-07-06T11:38:39;0.75;;;0.20;;
50519;SDS011;36468;44.098;3.078;2022-07-06T11:41:05;2.53;;;0.40;;
50519;SDS011;36468;44.098;3.078;2022-07-06T11:43:31;1.33;;;0.35;;
50519;SDS011;36468;44.098;3.078;2022-07-06T11:45:57;3.03;;;0.25;;
50519;SDS011;36468;44.098;3.078;2022-07-06T11:48:23;2.35;;;0.38;;
50519;SDS011;36468;44.098;3.078;2022-07-06T11:51:02;3.90;;;0.40;;
50519;SDS011;36468;44.098;3.078;2022-07-06T11:53:29;3.30;;;0.20;;
50519;SDS011;36468;44.098;3.078;2022-07-06T11:55:55;2.92;;;0.60;;
50519;SDS011;36468;44.098;3.078;2022-07-06T11:58:22;1.02;;;0.30;;
50519;SDS011;36468;44.098;3.078;2022-07-06T12:01:04;5.72;;;0.32;;
50519;SDS011;36468;44.098;3.078;2022-07-06T12:03:31;8.38;;;1.13;;
50519;SDS011;36468;44.098;3.078;2022-07-06T12:05:58;3.72;;;0.50;;
50519;SDS011;36468;44.098;3.078;2022-07-06T12:08:24;1.33;;;0.25;;
50519;SDS011;36468;44.098;3.078;2022-07-06T12:10:50;2.72;;;0.38;;
50519;SDS011;36468;44.098;3.078;2022-07-06T12:13:17;2.67;;;0.28;;
50519;SDS011;36468;44.098;3.078;2022-07-06T12:15:43;3.58;;;0.35;;
50519;SDS011;36468;44.098;3.078;2022-07-06T12:18:09;4.40;;;0.30;;
50519;SDS011;36468;44.098;3.078;2022-07-06T12:20:36;2.50;;;0.30;;
50519;SDS011;36468;44.098;3.078;2022-07-06T12:23:05;4.13;;;0.43;;
50519;SDS011;36468;44.098;3.078;2022-07-06T12:25:33;1.73;;;0.40;;
50519;SDS011;36468;44.098;3.078;2022-07-06T12:27:59;3.03;;;0.93;;
50519;SDS011;36468;44.098;3.078;2022-07-06T12:30:26;2.47;;;0.40;;
50519;SDS011;36468;44.098;3.078;2022-07-06T12:33:10;2.33;;;0.40;;
50519;SDS011;36468;44.098;3.078;2022-07-06T12:35:38;1.90;;;0.63;;
50519;SDS011;36468;44.098;3.078;2022-07-06T12:38:05;4.00;;;0.30;;
50519;SDS011;36468;44.098;3.078;2022-07-06T12:40:31;4.90;;;0.52;;
50519;SDS011;36468;44.098;3.078;2022-07-06T12:42:57;1.80;;;0.90;;
50519;SDS011;36468;44.098;3.078;2022-07-06T12:45:27;1.38;;;0.40;;
50519;SDS011;36468;44.098;3.078;2022-07-06T12:48:03;3.25;;;0.40;;
50519;SDS011;36468;44.098;3.078;2022-07-06T12:50:34;2.97;;;0.80;;
50519;SDS011;36468;44.098;3.078;2022-07-06T12:53:02;1.50;;;0.30;;
50519;SDS011;36468;44.098;3.078;2022-07-06T12:55:28;1.85;;;0.28;;
50519;SDS011;36468;44.098;3.078;2022-07-06T12:57:55;3.40;;;0.50;;
50519;SDS011;36468;44.098;3.078;2022-07-06T13:00:22;1.48;;;0.40;;
50519;SDS011;36468;44.098;3.078;2022-07-06T13:02:49;2.63;;;0.40;;
50519;SDS011;36468;44.098;3.078;2022-07-06T13:05:21;1.52;;;0.40;;
50519;SDS011;36468;44.098;3.078;2022-07-06T13:07:54;3.42;;;0.50;;
50519;SDS011;36468;44.098;3.078;2022-07-06T13:10:21;3.33;;;0.50;;
50519;SDS011;36468;44.098;3.078;2022-07-06T13:12:47;2.15;;;0.50;;
50519;SDS011;36468;44.098;3.078;2022-07-06T13:15:13;4.60;;;0.70;;
50519;SDS011;36468;44.098;3.078;2022-07-06T13:17:40;3.30;;;0.47;;
50519;SDS011;36468;44.098;3.078;2022-07-06T13:20:09;2.08;;;0.50;;
50519;SDS011;36468;44.098;3.078;2022-07-06T13:22:37;4.93;;;0.60;;
50519;SDS011;36468;44.098;3.078;2022-07-06T13:25:04;4.50;;;0.40;;
50519;SDS011;36468;44.098;3.078;2022-07-06T13:27:30;1.70;;;0.40;;
50519;SDS011;36468;44.098;3.078;2022-07-06T13:29:56;2.55;;;0.40;;
50519;SDS011;36468;44.098;3.078;2022-07-06T13:32:22;2.60;;;0.70;;
50519;SDS011;36468;44.098;3.078;2022-07-06T13:34:48;2.08;;;0.55;;
50519;SDS011;36468;44.098;3.078;2022-07-06T13:37:14;0.95;;;0.40;;
50519;SDS011;36468;44.098;3.078;2022-07-06T13:39:40;2.00;;;0.50;;
50519;SDS011;36468;44.098;3.078;2022-07-06T13:42:06;2.47;;;0.65;;
50519;SDS011;36468;44.098;3.078;2022-07-06T13:44:34;3.03;;;0.50;;
50519;SDS011;36468;44.098;3.078;2022-07-06T13:47:00;5.30;;;0.70;;
50519;SDS011;36468;44.098;3.078;2022-07-06T13:49:26;1.55;;;0.40;;
50519;SDS011;36468;44.098;3.078;2022-07-06T13:51:52;1.15;;;0.50;;
50519;SDS011;36468;44.098;3.078;2022-07-06T13:54:20;5.90;;;0.47;;
50519;SDS011;36468;44.098;3.078;2022-07-06T13:56:46;2.25;;;0.38;;
50519;SDS011;36468;44.098;3.078;2022-07-06T13:59:12;2.42;;;0.50;;
50519;SDS011;36468;44.098;3.078;2022-07-06T14:01:38;3.22;;;0.55;;
50519;SDS011;36468;44.098;3.078;2022-07-06T14:04:04;4.72;;;0.50;;
50519;SDS011;36468;44.098;3.078;2022-07-06T14:06:30;3.50;;;0.47;;
50519;SDS011;36468;44.098;3.078;2022-07-06T14:08:56;2.67;;;0.50;;
50519;SDS011;36468;44.098;3.078;2022-07-06T14:11:22;2.60;;;0.60;;
50519;SDS011;36468;44.098;3.078;2022-07-06T14:13:48;4.75;;;0.98;;
50519;SDS011;36468;44.098;3.078;2022-07-06T14:16:14;5.18;;;0.70;;
50519;SDS011;36468;44.098;3.078;2022-07-06T14:18:40;2.60;;;0.60;;
50519;SDS011;36468;44.098;3.078;2022-07-06T14:21:08;2.85;;;0.60;;
50519;SDS011;36468;44.098;3.078;2022-07-06T14:23:34;3.17;;;0.52;;
50519;SDS011;36468;44.098;3.078;2022-07-06T14:26:00;6.43;;;0.60;;
50519;SDS011;36468;44.098;3.078;2022-07-06T14:28:26;2.45;;;0.60;;
50519;SDS011;36468;44.098;3.078;2022-07-06T14:30:52;4.55;;;0.60;;
50519;SDS011;36468;44.098;3.078;2022-07-06T14:33:18;5.40;;;0.80;;
50519;SDS011;36468;44.098;3.078;2022-07-06T14:35:45;5.40;;;0.70;;
50519;SDS011;36468;44.098;3.078;2022-07-06T14:38:14;3.67;;;0.90;;
50519;SDS011;36468;44.098;3.078;2022-07-06T14:40:41;4.53;;;0.60;;
50519;SDS011;36468;44.098;3.078;2022-07-06T14:43:07;8.95;;;0.50;;
50519;SDS011;36468;44.098;3.078;2022-07-06T14:45:33;6.13;;;0.80;;
50519;SDS011;36468;44.098;3.078;2022-07-06T14:47:59;7.18;;;0.68;;
50519;SDS011;36468;44.098;3.078;2022-07-06T14:50:25;6.63;;;0.60;;
50519;SDS011;36468;44.098;3.078;2022-07-06T14:52:52;4.22;;;0.63;;
50519;SDS011;36468;44.098;3.078;2022-07-06T14:55:18;5.72;;;0.65;;
50519;SDS011;36468;44.098;3.078;2022-07-06T14:57:44;4.45;;;0.70;;
50519;SDS011;36468;44.098;3.078;2022-07-06T15:00:11;4.95;;;0.65;;
50519;SDS011;36468;44.098;3.078;2022-07-06T15:02:37;7.53;;;0.98;;
50519;SDS011;36468;44.098;3.078;2022-07-06T15:05:03;3.00;;;0.70;;
50519;SDS011;36468;44.098;3.078;2022-07-06T15:07:29;5.90;;;0.73;;
50519;SDS011;36468;44.098;3.078;2022-07-06T15:09:56;3.92;;;0.70;;